Peawanuck Airport

CYPO | YPO

Peawanuck , Ontario , Canada

Sunday, January 26th, 2020 | 18:56

Weather

CYPO 262343Z AUTO 03003KT 330V080 5SM BR OVC003 M09/M11 A3005 RMK SLP184

Charts

No Charts Available

Gates

No Gates Available

Runways

No Runways Available

Events

No events for this airport


New event